• Join FlightAware (Why Join?)
  • Login
  • US Flag 
06:39PM EDT


 

Airport Tracker/Info


-or-


 

Live Flight TrackerFlight Track Log ✈ OPT732 ✈ 06-May-2013 ✈ KBFI - KBUR

Flight Track Log - Related Links

Times and Time Zones

All times are in EDT time to prevent confusion due to time zone crossing. See the OPT732 flight status page for this flight to view local times or setup timezone preferences in your user account.

Time Position Orientation Groundspeed Altitude Reporting Facility
EDT Latitude Longitude Course Direction KTS MPH feet Rate Location/Type
10:23AM 47.5767 -122.3403 307° West 204 235 2,500  Level Seattle Center
10:25AM 47.4397 -122.2897 161° South  Level Estimated
10:25AM 47.6444 -122.4747 161° South 245 282 3,200  Level Seattle Center
10:26AM 47.6014 -122.5647 235° Southwest 264 304 5,200 1,440 Climbing Seattle Center
10:27AM 47.5350 -122.5931 196° South 258 297 6,200 2,220 Climbing Seattle Center
10:28AM 47.4578 -122.5933 180° South 279 321 9,800 3,660 Climbing Seattle Center
10:29AM 47.3750 -122.5664 168° South 309 356 13,700 3,960 Climbing Seattle Center
10:30AM 47.2897 -122.4975 151° Southeast 326 375 17,900 3,180 Climbing Seattle Center
10:31AM 47.2058 -122.4314 152° Southeast 359 413 20,200 2,460 Climbing Seattle Center
10:32AM 47.1150 -122.3619 153° Southeast 374 430 23,000 2,100 Climbing Seattle Center
10:34AM 46.9955 -122.3164 165° South  Level Estimated
10:36AM 46.8167 -122.1389 173° South 431 496 28,800  Level Seattle Center
10:37AM 46.7044 -122.0531 152° Southeast 457 526 29,800 1,200 Climbing Seattle Center
10:38AM 46.5550 -121.9722 160° South 488 562 31,300 1,200 Climbing Seattle Center
10:40AM 46.2772 -121.9064 171° South 510 587 33,600 1,080 Climbing Seattle Center
10:41AM 46.2239 -121.8861 173° South  Level FlightAware Approximate
10:41AM 46.1486 -121.8758 171° South 509 586 34,700  Level Seattle Center
10:43AM 45.9291 -121.8198 170° South  Level FlightAware Approximate
10:44AM 45.7053 -121.7697 170° South 502 578 38,900  Level Seattle Center
10:46AM 45.4885 -121.7201 171° South  Level FlightAware Approximate
10:47AM 45.3019 -121.6742 171° South 497 572 41,000  Level Seattle Center
10:49AM 45.0225 -121.6094 171° South 511 588 41,000  Level Seattle Center
10:50AM 44.8858 -121.5797 171° South 504 580 41,000  Level Seattle Center
10:52AM 44.6153 -121.5169 171° South 484 557 41,000  Level Seattle Center
10:53AM 44.4836 -121.4883 171° South 482 555 41,000  Level Seattle Center
10:55AM 44.2813 -121.4416 171° South  Level FlightAware Approximate
10:58AM 43.7800 -121.3331 171° South 504 580 41,000  Level Seattle Center
10:59AM 43.6428 -121.3025 171° South 499 574 41,000  Level Seattle Center
11:00AM 43.5078 -121.2703 170° South 493 567 41,000  Level Seattle Center
11:02AM 43.4646 -121.2517 171° South  Level FlightAware Approximate
11:02AM 43.2358 -121.2164 172° South 495 570 41,000  Level Seattle Center
11:03AM 43.3478 -121.2261 171° South  Level FlightAware Approximate
11:03AM 43.1008 -121.1864 171° South 490 564 41,000  Level Seattle Center
11:04AM 42.9661 -121.1564 171° South 489 563 41,000  Level Seattle Center
11:05AM 42.8308 -121.1294 172° South 489 563 41,000  Level Seattle Center
11:07AM 42.5603 -121.0675 170° South 491 565 41,000  Level Seattle Center
11:09AM 42.2892 -121.0108 171° South 490 564 41,000  Level Seattle Center
11:11AM 42.0169 -120.9519 171° South 496 571 41,000  Level Seattle Center
11:12AM 41.8789 -120.9222 171° South 500 575 41,000  Level Seattle Center
11:14AM 41.7118 -120.8835 171° South  Level FlightAware Approximate
11:14AM 41.6047 -120.8656 171° South 496 571 41,000  Level Seattle Center
11:15AM 41.4678 -120.8367 171° South 496 571 41,000  Level Seattle Center
11:17AM 41.1669 -120.7736 171° South 495 570 41,000  Level Seattle Center
11:18AM 41.0297 -120.7469 172° South 497 572 41,000  Level Seattle Center
11:19AM 40.8931 -120.7153 170° South 497 572 41,000  Level Seattle Center
11:21AM 40.7378 -120.6783 170° South  Level FlightAware Approximate
11:21AM 40.6214 -120.6506 170° South 495 570 41,000  Level Seattle Center
11:23AM 40.4894 -120.6199 170° South  Level FlightAware Approximate
11:23AM 40.3283 -120.5806 170° South 497 572 41,000  Level Oakland Center
11:24AM 40.1919 -120.5472 169° South 498 573 41,000  Level Oakland Center
11:27AM 40.0439 -120.5151 169° South  Level FlightAware Approximate
11:29AM 39.6350 -120.4194 171° South 497 572 41,000  Level Oakland Center
11:30AM 39.5000 -120.3875 170° South 493 567 41,000  Level Oakland Center
11:31AM 39.3625 -120.3561 170° South 496 571 41,000  Level Oakland Center
11:33AM 39.1339 -120.3039 170° South  Level FlightAware Approximate
11:34AM 39.2169 -120.3214 171° South  Level FlightAware Approximate
11:34AM 38.9281 -120.2567 170° South 492 566 41,000  Level Oakland Center
11:37AM 38.7568 -120.2165 170° South  Level FlightAware Approximate
11:37AM 38.4742 -120.1661 170° South 491 565 41,000  Level Los Angeles Center
11:39AM 38.2511 -120.1047 168° South 488 562 41,000  Level Oakland Center
11:40AM 38.1156 -120.0739 170° South 491 565 41,000  Level Oakland Center
11:42AM 37.8472 -120.0133 170° South 487 560 41,000  Level Oakland Center
11:43AM 37.7100 -119.9831 170° South 494 568 41,000  Level Oakland Center
11:45AM 37.4783 -119.9433 172° South 488 562 41,000  Level Los Angeles Center
11:46AM 37.2892 -119.8981 169° South 495 570 41,000  Level Los Angeles Center
11:47AM 37.1539 -119.8678 170° South 494 568 41,000  Level Los Angeles Center
11:48AM 37.0172 -119.8386 170° South 497 572 41,000  Level Los Angeles Center
11:49AM 36.8817 -119.8103 171° South 496 571 41,000 -240 Level Los Angeles Center
11:50AM 36.7439 -119.7794 170° South 499 574 40,500 -660 Descending Los Angeles Center
11:51AM 36.6344 -119.7536 169° South 500 575 39,700 -780 Descending Los Angeles Center
11:52AM 36.4722 -119.7186 170° South 495 570 39,000 -1,020 Descending Los Angeles Center
11:53AM 36.3136 -119.6833 170° South 482 555 37,600 -2,160 Descending Los Angeles Center
11:54AM 36.1800 -119.6561 171° South 482 555 34,600 -3,000 Descending Los Angeles Center
11:55AM 36.0486 -119.6278 170° South 480 552 31,500 -1,800 Descending Los Angeles Center
11:56AM 35.9408 -119.6158 175° South 486 559 31,000 -300 Descending Los Angeles Center
11:57AM 35.7731 -119.6242 182° South 501 577 31,000 -540 Level Oakland Center
11:59AM 35.6142 -119.6196 183° South  Level FlightAware Approximate
12:00PM 35.3267 -119.6400 147° Southeast 486 559 29,000  Level Los Angeles Center
12:01PM 35.2008 -119.6244 174° South 451 519 27,200 -1,020 Descending Los Angeles Center
12:03PM 35.0956 -119.6089 173° South 381 438 26,700 -1,500 Descending Los Angeles Center
12:04PM 34.9297 -119.4892 149° Southeast 367 422 22,700 -2,220 Descending Oakland Center
12:05PM 34.8600 -119.3950 132° Southeast 373 429 20,600 -1,920 Descending Oakland Center
12:06PM 34.8597 -119.3044 147° Southeast  Level FlightAware Approximate
12:06PM 34.8469 -119.3775 132° Southeast 368 423 20,200  Level Los Angeles Center
12:07PM 34.7678 -119.2753 133° Southeast 345 397 19,000 -2,160 Descending Los Angeles Center
12:09PM 34.6277 -119.1111 141° Southeast  Level FlightAware Approximate
12:10PM 34.5833 -119.0667 141° Southeast 310 357 11,900  Level Southern California TRACON
12:10PM 34.5567 -119.0486 151° Southeast 303 349 11,300 -1,980 Descending Los Angeles Center
12:11PM 34.4894 -118.9967 148° Southeast 282 325 9,100 -1,440 Descending Los Angeles Center
12:12PM 34.4183 -118.9322 143° Southeast 262 302 8,400 -840 Descending Los Angeles Center
12:13PM 34.3706 -118.8942 147° Southeast 258 297 7,400 -1,140 Descending Los Angeles Center
12:14PM 34.3081 -118.8506 150° Southeast 210 242 6,100 -1,680 Descending Los Angeles Center
12:15PM 34.2575 -118.8175 152° Southeast 207 238 4,000 -660 Descending Los Angeles Center
12:18PM 34.2167 -118.6500 106° East 218 251 4,000  Level Southern California TRACON
12:19PM 34.2000 -118.5833 107° East 220 253 4,000 -420 Level Southern California TRACON
12:20PM 34.2000 -118.5167 90° East 189 217 3,200 -900 Descending Southern California TRACON
12:21PM 34.2000 -118.4667 90° East 155 178 2,300 -900 Descending Southern California TRACON
12:22PM 34.2000 -118.4167 90° East 143 165 1,500 -840 Descending Southern California TRACON
12:24PM 34.2000 -118.3500 96° East  Level FlightAware Approximate
12:31PM 34.2007 -118.3587 96° East  Level Estimated
12:32PM 34.2000 -118.3500 96° East  Level FlightAware Approximate
12:33PM 34.2007 -118.3587 96° East  Level Estimated
12:34PM 34.2000 -118.3500 96° East  Level FlightAware Approximate
12:35PM 34.2007 -118.3587 96° East  Level Estimated
12:36PM 34.2000 -118.3500 96° East  Level FlightAware Approximate
12:37PM 34.2007 -118.3587 96° East  Level Estimated
12:38PM 34.2000 -118.3500 96° East  Level FlightAware Approximate
12:39PM 34.2007 -118.3587 96° East  Level Estimated